Time;durP1;ratioP1;P1;durP2;ratioP2;P2;SDS_P1;SDS_P2;PMS_P1;PMS_P2;Temp;Humidity;BMP_temperature;BMP_pressure;BME280_temperature;BME280_humidity;BME280_pressure;Samples;Min_cycle;Max_cycle;Signal;HPM_P1;HPM_P2
2022/10/26 00:01:41;;;;;;;26.08;10.52;;;;;;;;;;5030717;28;20039;-68
2022/10/26 00:04:06;;;;;;;25.83;9.63;;;;;;;;;;5015520;28;20022;-68
2022/10/26 00:06:31;;;;;;;26.63;9.57;;;;;;;;;;5031541;28;20364;-68
2022/10/26 00:08:57;;;;;;;33.40;8.90;;;;;;;;;;5031043;28;20025;-68
2022/10/26 00:11:22;;;;;;;19.30;9.18;;;;;;;;;;5029058;28;20049;-69
2022/10/26 00:13:47;;;;;;;28.80;9.10;;;;;;;;;;5033035;28;20415;-68
2022/10/26 00:16:15;;;;;;;29.25;9.00;;;;;;;;;;5028800;28;20387;-67
2022/10/26 00:18:40;;;;;;;18.35;9.52;;;;;;;;;;5029981;28;20034;-67
2022/10/26 00:21:06;;;;;;;25.48;9.00;;;;;;;;;;5022749;28;20551;-67
2022/10/26 00:23:31;;;;;;;20.13;9.32;;;;;;;;;;5021985;28;20022;-67
2022/10/26 00:25:57;;;;;;;22.27;10.73;;;;;;;;;;5028664;28;20020;-66
2022/10/26 00:28:23;;;;;;;24.83;9.95;;;;;;;;;;5027353;28;20036;-68
2022/10/26 00:30:48;;;;;;;23.75;8.75;;;;;;;;;;5029065;28;20193;-67
2022/10/26 00:33:13;;;;;;;22.73;8.93;;;;;;;;;;5029938;28;20056;-68
2022/10/26 00:35:39;;;;;;;22.05;9.48;;;;;;;;;;5023297;28;20505;-68
2022/10/26 00:38:04;;;;;;;40.85;10.18;;;;;;;;;;5021661;28;20606;-68
2022/10/26 00:40:29;;;;;;;19.98;9.15;;;;;;;;;;5030579;28;20022;-68
2022/10/26 00:42:55;;;;;;;23.20;10.05;;;;;;;;;;5034055;28;20029;-67
2022/10/26 00:45:25;;;;;;;23.05;8.75;;;;;;;;;;5026964;28;20022;-68
2022/10/26 00:47:52;;;;;;;27.63;8.60;;;;;;;;;;5015483;28;20543;-67
2022/10/26 00:50:26;;;;;;;25.13;9.20;;;;;;;;;;5025589;28;20014;-67
2022/10/26 00:52:51;;;;;;;27.00;9.55;;;;;;;;;;5027406;28;20041;-67
2022/10/26 00:55:20;;;;;;;22.17;9.85;;;;;;;;;;5031968;28;20056;-68
2022/10/26 00:57:46;;;;;;;22.90;8.60;;;;;;;;;;5031673;28;20017;-68
2022/10/26 01:00:12;;;;;;;30.05;10.80;;;;;;;;;;5019549;28;20025;-68
2022/10/26 01:02:37;;;;;;;18.67;9.32;;;;;;;;;;5033083;28;20025;-68
2022/10/26 01:05:03;;;;;;;27.25;9.43;;;;;;;;;;5032825;28;20017;-70
2022/10/26 01:07:28;;;;;;;32.42;9.18;;;;;;;;;;5032672;28;20388;-68
2022/10/26 01:09:54;;;;;;;23.60;8.80;;;;;;;;;;5033126;28;20021;-69
2022/10/26 01:12:19;;;;;;;27.20;11.30;;;;;;;;;;5031682;28;20021;-66
2022/10/26 01:14:45;;;;;;;19.63;9.15;;;;;;;;;;5032700;28;20100;-68
2022/10/26 01:17:23;;;;;;;24.65;10.00;;;;;;;;;;5029963;28;20108;-67
2022/10/26 01:19:52;;;;;;;24.15;9.80;;;;;;;;;;5031701;28;20029;-68
2022/10/26 01:22:17;;;;;;;28.38;10.27;;;;;;;;;;5028929;28;20558;-68
2022/10/26 01:24:45;;;;;;;25.70;10.48;;;;;;;;;;5020947;28;20033;-69
2022/10/26 01:27:19;;;;;;;25.73;11.13;;;;;;;;;;5032419;28;20049;-66
2022/10/26 01:29:50;;;;;;;25.65;10.30;;;;;;;;;;5032713;28;20246;-69
2022/10/26 01:32:34;;;;;;;24.98;10.10;;;;;;;;;;5032019;28;20026;-68
2022/10/26 01:35:05;;;;;;;24.48;10.43;;;;;;;;;;5018828;28;20022;-66
2022/10/26 01:37:34;;;;;;;29.77;10.73;;;;;;;;;;5031882;28;20025;-68
2022/10/26 01:40:08;;;;;;;26.50;10.52;;;;;;;;;;5032603;28;20530;-68
2022/10/26 01:42:34;;;;;;;29.52;11.25;;;;;;;;;;5022072;28;20437;-67
2022/10/26 01:45:01;;;;;;;31.85;9.93;;;;;;;;;;5026845;28;20021;-68
2022/10/26 01:47:27;;;;;;;28.95;10.73;;;;;;;;;;5029764;28;20025;-68
2022/10/26 01:49:54;;;;;;;26.13;9.98;;;;;;;;;;5030739;28;20017;-70
2022/10/26 01:52:20;;;;;;;47.75;11.93;;;;;;;;;;5029104;28;20048;-67
2022/10/26 01:54:45;;;;;;;23.65;9.05;;;;;;;;;;5032002;28;20025;-67
2022/10/26 01:57:12;;;;;;;30.33;9.93;;;;;;;;;;5031682;28;20487;-68
2022/10/26 01:59:55;;;;;;;30.30;11.38;;;;;;;;;;5031657;28;20038;-68
2022/10/26 02:02:38;;;;;;;27.25;12.20;;;;;;;;;;5030975;28;20048;-67
2022/10/26 02:05:06;;;;;;;23.50;10.38;;;;;;;;;;5019963;28;20021;-67
2022/10/26 02:07:49;;;;;;;19.15;9.32;;;;;;;;;;5029816;28;20018;-67
2022/10/26 02:10:36;;;;;;;30.27;10.32;;;;;;;;;;5032245;28;20022;-67
2022/10/26 02:13:02;;;;;;;22.52;8.85;;;;;;;;;;5020047;28;20383;-67
2022/10/26 02:15:30;;;;;;;20.75;9.65;;;;;;;;;;5031341;28;20014;-66
2022/10/26 02:18:02;;;;;;;26.42;9.85;;;;;;;;;;5035978;28;20112;-69
2022/10/26 02:20:48;;;;;;;22.90;10.38;;;;;;;;;;5013769;28;20029;-66
2022/10/26 02:23:14;;;;;;;28.67;9.65;;;;;;;;;;5030809;28;20060;-67
2022/10/26 02:25:43;;;;;;;31.15;9.43;;;;;;;;;;5030384;28;20220;-66
2022/10/26 02:28:10;;;;;;;23.40;9.80;;;;;;;;;;5027702;28;20109;-69
2022/10/26 02:30:36;;;;;;;46.83;11.27;;;;;;;;;;5030411;28;20124;-67
2022/10/26 02:33:02;;;;;;;31.63;9.48;;;;;;;;;;5031751;28;20112;-67
2022/10/26 02:35:29;;;;;;;34.63;9.65;;;;;;;;;;5031233;28;20079;-68
2022/10/26 02:37:55;;;;;;;31.77;10.23;;;;;;;;;;5031367;28;20499;-67
2022/10/26 02:40:22;;;;;;;31.00;10.68;;;;;;;;;;5031604;28;20025;-68
2022/10/26 02:42:48;;;;;;;31.98;11.05;;;;;;;;;;5018704;28;20417;-67
2022/10/26 02:45:19;;;;;;;31.40;10.95;;;;;;;;;;5028687;28;20021;-68
2022/10/26 02:47:44;;;;;;;26.77;10.55;;;;;;;;;;5030793;28;20060;-67
2022/10/26 02:50:10;;;;;;;38.95;11.07;;;;;;;;;;5031071;28;20049;-68
2022/10/26 02:52:49;;;;;;;32.03;12.07;;;;;;;;;;5031323;28;20483;-67
2022/10/26 02:55:17;;;;;;;23.70;10.68;;;;;;;;;;5018259;28;20052;-65
2022/10/26 02:57:45;;;;;;;27.77;11.00;;;;;;;;;;5030268;28;20017;-66
2022/10/26 03:00:12;;;;;;;36.15;11.93;;;;;;;;;;5022789;28;20018;-67
2022/10/26 03:02:38;;;;;;;32.03;10.65;;;;;;;;;;5024744;28;20064;-67
2022/10/26 03:05:09;;;;;;;40.15;12.18;;;;;;;;;;5030571;28;20379;-66
2022/10/26 03:07:34;;;;;;;41.33;14.30;;;;;;;;;;5030427;28;20431;-67
2022/10/26 03:09:59;;;;;;;27.35;11.40;;;;;;;;;;5031513;28;20024;-67
2022/10/26 03:12:24;;;;;;;24.88;11.70;;;;;;;;;;5030598;28;20021;-66
2022/10/26 03:14:50;;;;;;;28.60;11.60;;;;;;;;;;5030344;28;20033;-67
2022/10/26 03:17:15;;;;;;;39.22;13.93;;;;;;;;;;5017620;28;20083;-65
2022/10/26 03:19:40;;;;;;;41.95;12.10;;;;;;;;;;5018039;28;20386;-69
2022/10/26 03:22:05;;;;;;;31.15;11.15;;;;;;;;;;5030615;28;20492;-67
2022/10/26 03:24:30;;;;;;;34.13;11.38;;;;;;;;;;5029939;28;20036;-67
2022/10/26 03:26:56;;;;;;;37.28;11.73;;;;;;;;;;5030047;28;20009;-67
2022/10/26 03:29:21;;;;;;;34.88;11.70;;;;;;;;;;5024936;28;20018;-67
2022/10/26 03:31:46;;;;;;;33.38;11.38;;;;;;;;;;5030421;28;20029;-66
2022/10/26 03:34:12;;;;;;;37.90;12.57;;;;;;;;;;5030644;28;20505;-66
2022/10/26 03:36:38;;;;;;;43.33;12.20;;;;;;;;;;5028899;28;20491;-69
2022/10/26 03:39:03;;;;;;;40.97;12.55;;;;;;;;;;5030878;28;20168;-68
2022/10/26 03:41:28;;;;;;;24.48;11.82;;;;;;;;;;5030902;28;20049;-69
2022/10/26 03:43:53;;;;;;;38.15;12.43;;;;;;;;;;5017671;28;20555;-68
2022/10/26 03:46:18;;;;;;;25.55;12.23;;;;;;;;;;5029576;28;20013;-68
2022/10/26 03:48:44;;;;;;;40.90;12.30;;;;;;;;;;5030724;28;20038;-66
2022/10/26 03:51:09;;;;;;;39.35;13.02;;;;;;;;;;5029819;28;20028;-67
2022/10/26 03:53:34;;;;;;;27.30;11.60;;;;;;;;;;5029636;28;20029;-66
2022/10/26 03:55:59;;;;;;;32.20;11.65;;;;;;;;;;5030125;28;20550;-67
2022/10/26 03:58:24;;;;;;;26.80;11.02;;;;;;;;;;5030003;28;20487;-67
2022/10/26 04:00:50;;;;;;;32.40;11.18;;;;;;;;;;5029701;28;20025;-66
2022/10/26 04:03:15;;;;;;;38.25;11.95;;;;;;;;;;5030112;28;20016;-67
2022/10/26 04:05:40;;;;;;;23.85;10.48;;;;;;;;;;5029627;28;20049;-66
2022/10/26 04:08:05;;;;;;;44.42;14.05;;;;;;;;;;5028664;28;20105;-67
2022/10/26 04:10:31;;;;;;;32.83;12.45;;;;;;;;;;5017777;28;20121;-65
2022/10/26 04:12:57;;;;;;;35.17;13.38;;;;;;;;;;5023778;28;20526;-67
2022/10/26 04:15:23;;;;;;;32.22;12.20;;;;;;;;;;5021147;28;20026;-66
2022/10/26 04:17:54;;;;;;;28.08;11.27;;;;;;;;;;5029341;28;20036;-67
2022/10/26 04:20:19;;;;;;;40.90;11.38;;;;;;;;;;5016951;28;20022;-68
2022/10/26 04:22:44;;;;;;;37.95;13.35;;;;;;;;;;5029146;28;20092;-66
2022/10/26 04:25:11;;;;;;;23.73;11.27;;;;;;;;;;5028208;28;20017;-69
2022/10/26 04:27:36;;;;;;;33.13;10.30;;;;;;;;;;5022900;28;20080;-68
2022/10/26 04:30:01;;;;;;;26.00;10.82;;;;;;;;;;5022032;28;20579;-68
2022/10/26 04:32:26;;;;;;;29.23;10.60;;;;;;;;;;5023953;28;20074;-68
2022/10/26 04:34:53;;;;;;;32.80;12.00;;;;;;;;;;5027694;28;20148;-66
2022/10/26 04:37:18;;;;;;;31.30;11.52;;;;;;;;;;5026739;28;20030;-67
2022/10/26 04:39:43;;;;;;;33.97;11.27;;;;;;;;;;5029195;28;20029;-67
2022/10/26 04:42:09;;;;;;;36.92;12.93;;;;;;;;;;5028126;28;20120;-67
2022/10/26 04:44:34;;;;;;;30.00;11.32;;;;;;;;;;5029485;28;20022;-67
2022/10/26 04:46:59;;;;;;;34.45;12.55;;;;;;;;;;5023076;28;20392;-67
2022/10/26 04:49:24;;;;;;;28.83;12.75;;;;;;;;;;5022240;28;20032;-69
2022/10/26 04:51:49;;;;;;;31.57;11.47;;;;;;;;;;5028627;28;20072;-66
2022/10/26 04:54:14;;;;;;;37.78;12.00;;;;;;;;;;5029512;28;20612;-66
2022/10/26 04:56:40;;;;;;;32.20;10.60;;;;;;;;;;5014316;28;20018;-67
2022/10/26 04:59:05;;;;;;;32.05;10.93;;;;;;;;;;5017323;28;20303;-67
2022/10/26 05:01:30;;;;;;;34.72;11.63;;;;;;;;;;5026810;28;20030;-66
2022/10/26 05:03:56;;;;;;;24.05;10.10;;;;;;;;;;5024924;28;20025;-67
2022/10/26 05:06:21;;;;;;;27.00;11.13;;;;;;;;;;5027442;28;20025;-67
2022/10/26 05:08:46;;;;;;;39.63;10.13;;;;;;;;;;5029598;28;20022;-68
2022/10/26 05:11:11;;;;;;;31.48;11.43;;;;;;;;;;5029016;28;20064;-67
2022/10/26 05:13:37;;;;;;;26.27;10.15;;;;;;;;;;5027935;28;20101;-66
2022/10/26 05:16:02;;;;;;;27.20;10.32;;;;;;;;;;5020650;28;20491;-66
2022/10/26 05:18:27;;;;;;;23.05;9.98;;;;;;;;;;5017475;28;20033;-66
2022/10/26 05:20:52;;;;;;;30.35;11.10;;;;;;;;;;5027458;28;20120;-67
2022/10/26 05:23:18;;;;;;;29.67;9.82;;;;;;;;;;5029146;28;20022;-66
2022/10/26 05:25:43;;;;;;;23.90;9.45;;;;;;;;;;5026851;28;20044;-67
2022/10/26 05:28:12;;;;;;;26.25;10.00;;;;;;;;;;5020927;28;20424;-68
2022/10/26 05:30:37;;;;;;;24.25;10.00;;;;;;;;;;5030657;28;20025;-66
2022/10/26 05:33:03;;;;;;;31.55;10.82;;;;;;;;;;5032868;28;20797;-67
2022/10/26 05:35:28;;;;;;;24.23;10.25;;;;;;;;;;5032483;28;20022;-66
2022/10/26 05:37:54;;;;;;;21.73;10.25;;;;;;;;;;5031921;28;20029;-68
2022/10/26 05:40:19;;;;;;;37.92;10.80;;;;;;;;;;5033012;28;20033;-65
2022/10/26 05:42:45;;;;;;;30.40;9.13;;;;;;;;;;5034111;28;20021;-66
2022/10/26 05:45:10;;;;;;;34.05;12.82;;;;;;;;;;5032122;28;20486;-66
2022/10/26 05:47:40;;;;;;;52.85;12.82;;;;;;;;;;5030663;28;20022;-67
2022/10/26 05:50:05;;;;;;;32.78;11.10;;;;;;;;;;5032715;28;20045;-66
2022/10/26 05:52:36;;;;;;;32.58;9.60;;;;;;;;;;5023941;28;20068;-66
2022/10/26 05:55:02;;;;;;;34.05;9.88;;;;;;;;;;5023631;28;20507;-67
2022/10/26 05:57:27;;;;;;;23.90;9.48;;;;;;;;;;5031981;28;20061;-67
2022/10/26 05:59:52;;;;;;;31.75;10.25;;;;;;;;;;5031381;28;20343;-66
2022/10/26 06:02:25;;;;;;;30.52;8.90;;;;;;;;;;5031130;28;20159;-66
2022/10/26 06:04:51;;;;;;;26.60;9.70;;;;;;;;;;5028793;28;20612;-65
2022/10/26 06:07:19;;;;;;;22.35;9.23;;;;;;;;;;5029026;28;20022;-67
2022/10/26 06:09:45;;;;;;;47.42;12.63;;;;;;;;;;5032060;28;20114;-66
2022/10/26 06:12:10;;;;;;;34.88;9.95;;;;;;;;;;5030822;28;20589;-67
2022/10/26 06:14:36;;;;;;;34.53;12.55;;;;;;;;;;5031494;28;20061;-68
2022/10/26 06:17:10;;;;;;;31.42;11.05;;;;;;;;;;5030831;28;20021;-65
2022/10/26 06:19:51;;;;;;;28.08;9.90;;;;;;;;;;5031476;28;20159;-69
2022/10/26 06:22:16;;;;;;;37.75;9.93;;;;;;;;;;5030722;28;20021;-67
2022/10/26 06:24:52;;;;;;;27.03;10.07;;;;;;;;;;5031187;28;20024;-66
2022/10/26 06:27:21;;;;;;;29.70;10.43;;;;;;;;;;5031011;28;20266;-68
2022/10/26 06:29:58;;;;;;;30.40;11.07;;;;;;;;;;5027415;28;20025;-69
2022/10/26 06:32:24;;;;;;;39.63;9.75;;;;;;;;;;5024245;28;20370;-67
2022/10/26 06:34:51;;;;;;;26.17;9.27;;;;;;;;;;5023565;28;20104;-67
2022/10/26 06:37:17;;;;;;;31.65;10.68;;;;;;;;;;5031240;28;20026;-68
2022/10/26 06:39:46;;;;;;;24.85;9.32;;;;;;;;;;5018615;28;20109;-68
2022/10/26 06:42:12;;;;;;;23.92;7.88;;;;;;;;;;5019029;28;20030;-67
2022/10/26 06:44:37;;;;;;;25.05;8.82;;;;;;;;;;5031824;28;20028;-67
2022/10/26 06:47:08;;;;;;;28.73;8.60;;;;;;;;;;5031240;28;20027;-68
2022/10/26 06:49:35;;;;;;;22.05;8.30;;;;;;;;;;5032511;28;20059;-69
2022/10/26 06:52:03;;;;;;;32.53;9.18;;;;;;;;;;5026597;28;20038;-68
2022/10/26 06:54:28;;;;;;;30.95;8.98;;;;;;;;;;5016113;28;20057;-68
2022/10/26 06:56:53;;;;;;;40.72;9.25;;;;;;;;;;5030907;28;20057;-68
2022/10/26 06:59:39;;;;;;;41.72;11.38;;;;;;;;;;5032404;28;20029;-68
2022/10/26 07:02:04;;;;;;;42.85;7.78;;;;;;;;;;5030104;28;20846;-68
2022/10/26 07:04:29;;;;;;;36.75;8.27;;;;;;;;;;5030138;28;20021;-69
2022/10/26 07:06:56;;;;;;;34.13;9.68;;;;;;;;;;5023379;28;20438;-68
2022/10/26 07:09:21;;;;;;;28.13;7.80;;;;;;;;;;5031229;28;20415;-68
2022/10/26 07:11:46;;;;;;;28.13;7.40;;;;;;;;;;5020600;28;20028;-67
2022/10/26 07:14:11;;;;;;;19.63;6.73;;;;;;;;;;5028912;28;20060;-66
2022/10/26 07:16:36;;;;;;;46.30;9.03;;;;;;;;;;5029569;28;20257;-68
2022/10/26 07:19:02;;;;;;;22.65;6.47;;;;;;;;;;5030202;28;20298;-68
2022/10/26 07:21:27;;;;;;;20.95;7.22;;;;;;;;;;5030828;28;20028;-67
2022/10/26 07:23:54;;;;;;;19.70;6.10;;;;;;;;;;5030147;28;20081;-67
2022/10/26 07:26:19;;;;;;;29.60;6.90;;;;;;;;;;5027258;28;20018;-67
2022/10/26 07:28:47;;;;;;;16.73;6.47;;;;;;;;;;5024071;28;20036;-67
2022/10/26 07:31:12;;;;;;;23.92;7.43;;;;;;;;;;5029158;28;20507;-67
2022/10/26 07:33:37;;;;;;;26.00;8.32;;;;;;;;;;5029899;28;20041;-66
2022/10/26 07:36:03;;;;;;;36.78;8.27;;;;;;;;;;5029223;28;20075;-67
2022/10/26 07:38:28;;;;;;;23.33;6.57;;;;;;;;;;5026555;28;20041;-66
2022/10/26 07:40:54;;;;;;;39.25;6.95;;;;;;;;;;5019823;28;20033;-67
2022/10/26 07:43:20;;;;;;;32.25;8.35;;;;;;;;;;5030068;28;20108;-65
2022/10/26 07:45:47;;;;;;;22.95;7.10;;;;;;;;;;5029834;28;20537;-68
2022/10/26 07:48:13;;;;;;;38.55;7.65;;;;;;;;;;5029221;28;20075;-68
2022/10/26 07:50:38;;;;;;;24.65;7.28;;;;;;;;;;5020415;28;20025;-68
2022/10/26 07:53:03;;;;;;;20.77;7.00;;;;;;;;;;5023550;28;20029;-67
2022/10/26 07:55:28;;;;;;;23.30;6.15;;;;;;;;;;5029098;28;20267;-67
2022/10/26 07:57:54;;;;;;;17.17;6.90;;;;;;;;;;5027282;28;20079;-69
2022/10/26 08:00:19;;;;;;;26.08;7.35;;;;;;;;;;5019478;28;20017;-68
2022/10/26 08:02:44;;;;;;;20.30;7.35;;;;;;;;;;5025974;28;20022;-68
2022/10/26 08:05:09;;;;;;;29.57;6.87;;;;;;;;;;5024269;28;20059;-67
2022/10/26 08:07:39;;;;;;;15.18;6.03;;;;;;;;;;5029830;28;20675;-67
2022/10/26 08:10:04;;;;;;;25.10;6.05;;;;;;;;;;5030264;28;20038;-67
2022/10/26 08:12:29;;;;;;;29.40;7.13;;;;;;;;;;5030302;28;20029;-67
2022/10/26 08:14:55;;;;;;;18.00;7.38;;;;;;;;;;5029588;28;20036;-68
2022/10/26 08:17:21;;;;;;;18.98;6.20;;;;;;;;;;5027736;28;20018;-67
2022/10/26 08:19:46;;;;;;;28.30;6.57;;;;;;;;;;5029634;28;20022;-68
2022/10/26 08:22:11;;;;;;;18.73;6.32;;;;;;;;;;5030228;28;20392;-68
2022/10/26 08:24:37;;;;;;;17.02;6.82;;;;;;;;;;5028133;28;20497;-68
2022/10/26 08:27:02;;;;;;;14.00;6.53;;;;;;;;;;5027489;28;20017;-67
2022/10/26 08:29:27;;;;;;;22.45;6.88;;;;;;;;;;5039358;28;20111;-66
2022/10/26 08:31:52;;;;;;;28.00;8.53;;;;;;;;;;5022081;28;20019;-68
2022/10/26 08:34:18;;;;;;;18.05;6.47;;;;;;;;;;5017635;28;20803;-67
2022/10/26 08:36:43;;;;;;;21.38;7.43;;;;;;;;;;5028834;28;20583;-68
2022/10/26 08:39:08;;;;;;;29.65;6.95;;;;;;;;;;5029214;28;20034;-68
2022/10/26 08:41:35;;;;;;;30.25;7.03;;;;;;;;;;5029519;28;20037;-67
2022/10/26 08:44:06;;;;;;;22.77;7.03;;;;;;;;;;5029685;28;20537;-68
2022/10/26 08:46:36;;;;;;;19.77;6.65;;;;;;;;;;5022409;28;20147;-67
2022/10/26 08:49:09;;;;;;;23.17;6.78;;;;;;;;;;5019450;28;20022;-68
2022/10/26 08:51:36;;;;;;;33.50;6.45;;;;;;;;;;5015481;28;20022;-68
2022/10/26 08:54:07;;;;;;;17.88;6.22;;;;;;;;;;5029138;28;20025;-67
2022/10/26 08:56:39;;;;;;;30.20;5.93;;;;;;;;;;5029216;28;20092;-67
2022/10/26 08:59:21;;;;;;;17.30;6.05;;;;;;;;;;5029462;28;20040;-68
2022/10/26 09:01:46;;;;;;;17.85;6.93;;;;;;;;;;5017325;28;20411;-68
2022/10/26 09:04:12;;;;;;;13.65;5.47;;;;;;;;;;5027624;28;20025;-68
2022/10/26 09:06:53;;;;;;;18.92;7.03;;;;;;;;;;5027426;28;20022;-70
2022/10/26 09:09:24;;;;;;;20.65;6.50;;;;;;;;;;5032115;28;20021;-68
2022/10/26 09:11:54;;;;;;;19.15;5.35;;;;;;;;;;5032130;28;20104;-69
2022/10/26 09:14:39;;;;;;;19.40;7.43;;;;;;;;;;5028289;28;20022;-67
2022/10/26 09:17:16;;;;;;;19.33;6.00;;;;;;;;;;5017592;28;20080;-67
2022/10/26 09:19:57;;;;;;;19.98;5.65;;;;;;;;;;5018977;28;20040;-68
2022/10/26 09:22:40;;;;;;;22.92;5.82;;;;;;;;;;5031090;28;20024;-65
2022/10/26 09:25:26;;;;;;;13.38;5.20;;;;;;;;;;5031337;28;20025;-67
2022/10/26 09:27:56;;;;;;;23.10;6.32;;;;;;;;;;5035243;28;20049;-67
2022/10/26 09:30:21;;;;;;;19.98;6.78;;;;;;;;;;5031659;28;20100;-67
2022/10/26 09:32:48;;;;;;;16.45;5.40;;;;;;;;;;5031574;28;20221;-65
2022/10/26 09:35:16;;;;;;;19.38;4.95;;;;;;;;;;5030441;28;20033;-67
2022/10/26 09:37:45;;;;;;;25.97;5.77;;;;;;;;;;5031108;28;20382;-69
2022/10/26 09:40:13;;;;;;;21.95;5.50;;;;;;;;;;5030602;28;20040;-68
2022/10/26 09:42:42;;;;;;;27.40;6.43;;;;;;;;;;5032721;28;20021;-69
2022/10/26 09:45:09;;;;;;;19.10;5.13;;;;;;;;;;5030622;28;20463;-67
2022/10/26 09:47:37;;;;;;;21.43;5.70;;;;;;;;;;5028228;28;20439;-67
2022/10/26 09:50:08;;;;;;;19.33;5.38;;;;;;;;;;5029764;28;20029;-67
2022/10/26 09:52:33;;;;;;;15.10;5.32;;;;;;;;;;5032289;28;20044;-69
2022/10/26 09:54:58;;;;;;;27.80;6.78;;;;;;;;;;5031438;28;20483;-64
2022/10/26 09:57:24;;;;;;;13.68;5.20;;;;;;;;;;5031354;28;20394;-68
2022/10/26 09:59:51;;;;;;;18.60;5.28;;;;;;;;;;5018485;28;20029;-66
2022/10/26 10:02:36;;;;;;;20.00;5.70;;;;;;;;;;5032622;28;20045;-67
2022/10/26 10:05:02;;;;;;;25.13;5.47;;;;;;;;;;5029693;28;20021;-65
2022/10/26 10:07:27;;;;;;;20.60;6.60;;;;;;;;;;5031509;28;20017;-67
2022/10/26 10:10:11;;;;;;;17.67;4.53;;;;;;;;;;5032038;28;20021;-68
2022/10/26 10:12:36;;;;;;;17.08;4.80;;;;;;;;;;5029420;28;20029;-67
2022/10/26 10:15:01;;;;;;;18.65;4.70;;;;;;;;;;5029702;28;20632;-68
2022/10/26 10:17:26;;;;;;;16.33;5.10;;;;;;;;;;5029256;28;20094;-67
2022/10/26 10:19:52;;;;;;;20.58;4.22;;;;;;;;;;5031389;28;20467;-66
2022/10/26 10:22:21;;;;;;;26.52;5.40;;;;;;;;;;5018660;28;20102;-66
2022/10/26 10:24:46;;;;;;;;;;;;;;;;;;5030756;28;20079;-66
2022/10/26 10:27:11;;;;;;;21.52;5.35;;;;;;;;;;5031181;28;19909;-67
2022/10/26 10:29:40;;;;;;;23.93;5.10;;;;;;;;;;5025688;28;20080;-67
2022/10/26 10:32:05;;;;;;;;;;;;;;;;;;5031662;28;20282;-68
2022/10/26 10:34:32;;;;;;;15.25;5.35;;;;;;;;;;5028960;28;19975;-68
2022/10/26 10:36:58;;;;;;;22.80;5.07;;;;;;;;;;5029860;28;20585;-67
2022/10/26 10:39:34;;;;;;;24.90;4.80;;;;;;;;;;5021988;28;20518;-68
2022/10/26 10:42:00;;;;;;;18.58;5.25;;;;;;;;;;5031438;28;20033;-67
2022/10/26 10:44:28;;;;;;;22.48;5.50;;;;;;;;;;5035311;28;20018;-68
2022/10/26 10:47:01;;;;;;;23.23;6.45;;;;;;;;;;5027375;28;20026;-67
2022/10/26 10:49:27;;;;;;;21.70;5.30;;;;;;;;;;5022500;28;20553;-68
2022/10/26 10:51:53;;;;;;;14.40;5.40;;;;;;;;;;5029454;28;20037;-67
2022/10/26 10:54:24;;;;;;;14.18;4.65;;;;;;;;;;5017373;28;20046;-67
2022/10/26 10:56:53;;;;;;;33.92;5.68;;;;;;;;;;5029160;28;20102;-69
2022/10/26 10:59:24;;;;;;;16.27;5.15;;;;;;;;;;5030606;28;20029;-67
2022/10/26 11:01:49;;;;;;;20.25;5.32;;;;;;;;;;5030177;28;20100;-68
2022/10/26 11:04:15;;;;;;;16.38;5.05;;;;;;;;;;5029141;28;20048;-68
2022/10/26 11:06:41;;;;;;;19.08;4.13;;;;;;;;;;5029624;28;20386;-68
2022/10/26 11:09:15;;;;;;;15.23;4.22;;;;;;;;;;5030958;28;20049;-66
2022/10/26 11:11:49;;;;;;;14.55;3.92;;;;;;;;;;5020749;28;20492;-68
2022/10/26 11:14:21;;;;;;;15.80;4.90;;;;;;;;;;5025187;28;20075;-67
2022/10/26 11:17:01;;;;;;;20.25;4.85;;;;;;;;;;5029262;28;20041;-68
2022/10/26 11:19:33;;;;;;;28.08;4.00;;;;;;;;;;5031055;28;20036;-68
2022/10/26 11:21:59;;;;;;;24.45;4.45;;;;;;;;;;5031087;28;20025;-68
2022/10/26 11:24:33;;;;;;;10.00;4.25;;;;;;;;;;5021599;28;20505;-66
2022/10/26 11:27:00;;;;;;;16.70;3.92;;;;;;;;;;5023841;28;20016;-67
2022/10/26 11:29:44;;;;;;;17.60;3.72;;;;;;;;;;5032448;28;20025;-67
2022/10/26 11:32:21;;;;;;;16.90;4.45;;;;;;;;;;5030382;28;20047;-67
2022/10/26 11:34:53;;;;;;;17.92;4.38;;;;;;;;;;5029940;28;20029;-69
2022/10/26 11:37:24;;;;;;;21.52;5.40;;;;;;;;;;5029232;28;20025;-67
2022/10/26 11:40:15;;;;;;;13.20;3.53;;;;;;;;;;5017983;28;20022;-66
2022/10/26 11:42:46;;;;;;;18.55;4.00;;;;;;;;;;5007527;28;20038;-66
2022/10/26 11:45:19;;;;;;;32.13;6.40;;;;;;;;;;5025122;28;20064;-66
2022/10/26 11:48:02;;;;;;;16.45;5.57;;;;;;;;;;5016194;28;20053;-65
2022/10/26 11:50:35;;;;;;;21.95;4.35;;;;;;;;;;5022506;28;20040;-67
2022/10/26 11:53:13;;;;;;;23.52;4.93;;;;;;;;;;5026894;28;20052;-66
2022/10/26 11:55:39;;;;;;;24.70;3.38;;;;;;;;;;5030168;28;20097;-68
2022/10/26 11:58:04;;;;;;;12.55;3.25;;;;;;;;;;5027774;28;20105;-67
2022/10/26 12:00:30;;;;;;;19.00;3.37;;;;;;;;;;5029055;28;20343;-66
2022/10/26 12:03:06;;;;;;;14.57;3.42;;;;;;;;;;5024670;28;20270;-69
2022/10/26 12:05:31;;;;;;;15.77;3.65;;;;;;;;;;5021788;28;20020;-67
2022/10/26 12:07:58;;;;;;;18.45;4.65;;;;;;;;;;5029095;28;20104;-68
2022/10/26 12:10:23;;;;;;;9.57;3.30;;;;;;;;;;5030239;28;20079;-67
2022/10/26 12:12:53;;;;;;;25.63;3.70;;;;;;;;;;5028474;28;20014;-65
2022/10/26 12:15:30;;;;;;;13.38;3.35;;;;;;;;;;5028973;28;20253;-67
2022/10/26 12:18:10;;;;;;;11.40;2.90;;;;;;;;;;5029161;28;20499;-67
2022/10/26 12:20:42;;;;;;;9.90;2.92;;;;;;;;;;5029755;28;20076;-68
2022/10/26 12:23:09;;;;;;;12.13;3.20;;;;;;;;;;5028111;28;20018;-66
2022/10/26 12:25:34;;;;;;;12.48;2.80;;;;;;;;;;5028413;28;20403;-67
2022/10/26 12:27:59;;;;;;;16.45;3.20;;;;;;;;;;5025927;28;20037;-68
2022/10/26 12:30:26;;;;;;;9.52;3.33;;;;;;;;;;5023544;28;20428;-66
2022/10/26 12:33:04;;;;;;;15.70;3.10;;;;;;;;;;5029272;28;20079;-66
2022/10/26 12:35:32;;;;;;;15.60;3.85;;;;;;;;;;5015657;28;20112;-67
2022/10/26 12:37:58;;;;;;;8.48;3.70;;;;;;;;;;5031560;28;20022;-66
2022/10/26 12:40:29;;;;;;;10.10;3.72;;;;;;;;;;4996196;28;1071746;-67
2022/10/26 12:42:54;;;;;;;21.75;3.85;;;;;;;;;;5033869;28;20046;-66
2022/10/26 12:45:20;;;;;;;16.88;4.25;;;;;;;;;;5033497;28;20033;-67
2022/10/26 12:47:48;;;;;;;13.10;3.28;;;;;;;;;;5033112;28;20073;-66
2022/10/26 12:50:13;;;;;;;8.40;2.87;;;;;;;;;;5033766;28;20017;-67
2022/10/26 12:52:40;;;;;;;18.02;3.72;;;;;;;;;;5022458;28;20244;-66
2022/10/26 12:55:11;;;;;;;10.07;3.40;;;;;;;;;;5031082;28;20451;-67
2022/10/26 12:57:42;;;;;;;20.30;3.17;;;;;;;;;;5033520;28;20028;-66
2022/10/26 13:00:13;;;;;;;15.48;4.40;;;;;;;;;;5034514;28;20129;-67
2022/10/26 13:02:47;;;;;;;9.98;3.60;;;;;;;;;;5033149;28;20031;-67
2022/10/26 13:05:12;;;;;;;14.82;3.65;;;;;;;;;;5024951;28;20085;-67
2022/10/26 13:07:38;;;;;;;12.75;3.33;;;;;;;;;;5032781;28;20018;-65
2022/10/26 13:10:10;;;;;;;15.38;3.30;;;;;;;;;;5033840;28;20014;-68
2022/10/26 13:12:38;;;;;;;15.77;3.33;;;;;;;;;;5033374;28;20033;-67
2022/10/26 13:15:05;;;;;;;11.30;3.15;;;;;;;;;;5032216;28;20025;-68
2022/10/26 13:17:31;;;;;;;14.07;3.38;;;;;;;;;;5028852;28;20386;-66
2022/10/26 13:20:01;;;;;;;17.48;4.55;;;;;;;;;;5022837;28;20059;-67
2022/10/26 13:22:27;;;;;;;7.32;2.95;;;;;;;;;;5033705;28;20037;-68
2022/10/26 13:24:54;;;;;;;13.35;3.40;;;;;;;;;;5030228;28;20471;-68
2022/10/26 13:27:23;;;;;;;13.13;3.17;;;;;;;;;;5031618;28;20617;-65
2022/10/26 13:30:04;;;;;;;11.48;3.25;;;;;;;;;;5032390;28;20057;-68
2022/10/26 13:32:32;;;;;;;14.75;3.90;;;;;;;;;;5033231;28;20049;-67
2022/10/26 13:34:59;;;;;;;11.80;3.25;;;;;;;;;;5032956;28;20032;-67
2022/10/26 13:37:26;;;;;;;18.38;3.55;;;;;;;;;;5020011;28;20030;-66
2022/10/26 13:39:54;;;;;;;9.77;3.72;;;;;;;;;;5033124;28;20177;-67
2022/10/26 13:42:32;;;;;;;13.85;3.28;;;;;;;;;;5031927;28;20060;-68
2022/10/26 13:44:57;;;;;;;21.88;4.13;;;;;;;;;;5032655;28;20033;-66
2022/10/26 13:47:35;;;;;;;19.55;3.60;;;;;;;;;;5023997;28;20018;-68
2022/10/26 13:50:10;;;;;;;12.18;3.50;;;;;;;;;;5030422;28;20059;-68
2022/10/26 13:52:38;;;;;;;11.82;3.42;;;;;;;;;;5031473;28;20101;-68
2022/10/26 13:55:08;;;;;;;15.25;3.05;;;;;;;;;;5033199;28;20021;-69
2022/10/26 13:57:41;;;;;;;10.60;3.42;;;;;;;;;;5033117;28;20029;-67
2022/10/26 14:00:18;;;;;;;13.02;3.35;;;;;;;;;;5032504;28;20021;-68
2022/10/26 14:02:43;;;;;;;13.43;3.78;;;;;;;;;;5029711;28;20104;-68
2022/10/26 14:05:11;;;;;;;13.80;4.68;;;;;;;;;;5032314;28;20610;-66
2022/10/26 14:07:39;;;;;;;11.30;3.17;;;;;;;;;;5030252;28;20087;-67
2022/10/26 14:10:05;;;;;;;10.65;3.20;;;;;;;;;;5032183;28;20471;-67
2022/10/26 14:12:31;;;;;;;15.30;6.63;;;;;;;;;;5030493;28;20044;-66
2022/10/26 14:15:01;;;;;;;15.18;4.90;;;;;;;;;;5023213;28;20038;-67
2022/10/26 14:17:26;;;;;;;12.90;3.95;;;;;;;;;;5027912;28;20025;-70
2022/10/26 14:19:52;;;;;;;20.02;3.60;;;;;;;;;;5032063;28;20618;-67
2022/10/26 14:22:19;;;;;;;13.00;4.80;;;;;;;;;;5030982;28;20021;-67
2022/10/26 14:24:49;;;;;;;9.52;3.58;;;;;;;;;;5030835;28;20052;-66
2022/10/26 14:27:19;;;;;;;15.25;4.20;;;;;;;;;;5032290;28;20021;-66
2022/10/26 14:29:44;;;;;;;11.13;3.42;;;;;;;;;;5027807;28;20405;-67
2022/10/26 14:32:25;;;;;;;8.98;4.05;;;;;;;;;;5027593;28;20052;-70